HECA

Cairo International Airport

Cairo, Egypt
METAR HECA 170600Z 00000KT 6000 NSC 15/11 Q1020 NOSIG
Observed Flight Rules
Dec-17 @ 06:00 UTC (22 minutes ago) Marginal Visual Flight Rules
Wind Visibility Clouds
Calm 6,003 meters
  • Clear skies
Temperatures Readings
Current 15°C / 59°F
Dewpoint 11°C / 52°F
Humidity 77%
Altimeter 30.12" Hg
Pressure 1020 hPa
Elevation 74
METAR HECA 170600Z 00000KT 6000 NSC 15/11 Q1020 NOSIG
Observed Flight Rules
Dec-17 @ 06:00 UTC
(22 minutes ago)
MVFR
Wind Visibility
Calm 6,003 meters
Clouds
  • Clear skies
Temperature Dewpoint
15°C / 59°F 11°C / 52°F
Humidity Altimeter Pressure
77% 30.12" Hg 1020 hPa